sensor_id;sensor_type;location;lat;lon;timestamp;P1;durP1;ratioP1;P2;durP2;ratioP2
25079;SDS011;13071;48.868;9.996;2022-10-16T00:01:07;1.00;;;1.00;;
25079;SDS011;13071;48.868;9.996;2022-10-16T00:03:36;0.98;;;0.98;;
25079;SDS011;13071;48.868;9.996;2022-10-16T00:06:03;1.85;;;1.23;;
25079;SDS011;13071;48.868;9.996;2022-10-16T00:08:30;4.22;;;1.00;;
25079;SDS011;13071;48.868;9.996;2022-10-16T00:11:03;1.67;;;1.30;;
25079;SDS011;13071;48.868;9.996;2022-10-16T00:13:31;4.93;;;1.40;;
25079;SDS011;13071;48.868;9.996;2022-10-16T00:16:00;2.80;;;1.10;;
25079;SDS011;13071;48.868;9.996;2022-10-16T00:18:27;5.40;;;1.40;;
25079;SDS011;13071;48.868;9.996;2022-10-16T00:20:54;1.08;;;1.08;;
25079;SDS011;13071;48.868;9.996;2022-10-16T00:23:21;1.42;;;1.20;;
25079;SDS011;13071;48.868;9.996;2022-10-16T00:25:58;2.25;;;1.10;;
25079;SDS011;13071;48.868;9.996;2022-10-16T00:28:26;1.35;;;1.25;;
25079;SDS011;13071;48.868;9.996;2022-10-16T00:30:53;1.30;;;1.20;;
25079;SDS011;13071;48.868;9.996;2022-10-16T00:33:20;2.05;;;1.30;;
25079;SDS011;13071;48.868;9.996;2022-10-16T00:35:47;2.40;;;1.30;;
25079;SDS011;13071;48.868;9.996;2022-10-16T00:38:14;3.50;;;1.40;;
25079;SDS011;13071;48.868;9.996;2022-10-16T00:40:40;1.20;;;1.20;;
25079;SDS011;13071;48.868;9.996;2022-10-16T00:43:11;3.08;;;1.42;;
25079;SDS011;13071;48.868;9.996;2022-10-16T00:45:41;3.38;;;1.23;;
25079;SDS011;13071;48.868;9.996;2022-10-16T00:48:10;1.20;;;1.10;;
25079;SDS011;13071;48.868;9.996;2022-10-16T00:50:39;1.45;;;0.80;;
25079;SDS011;13071;48.868;9.996;2022-10-16T00:53:08;1.45;;;1.10;;
25079;SDS011;13071;48.868;9.996;2022-10-16T00:55:37;1.27;;;1.10;;
25079;SDS011;13071;48.868;9.996;2022-10-16T00:58:03;1.27;;;1.17;;
25079;SDS011;13071;48.868;9.996;2022-10-16T01:00:30;1.33;;;1.20;;
25079;SDS011;13071;48.868;9.996;2022-10-16T01:02:58;1.05;;;1.05;;
25079;SDS011;13071;48.868;9.996;2022-10-16T01:05:28;0.98;;;0.90;;
25079;SDS011;13071;48.868;9.996;2022-10-16T01:08:01;2.17;;;1.65;;
25079;SDS011;13071;48.868;9.996;2022-10-16T01:10:36;0.98;;;0.98;;
25079;SDS011;13071;48.868;9.996;2022-10-16T01:13:07;2.90;;;1.10;;
25079;SDS011;13071;48.868;9.996;2022-10-16T01:15:37;0.95;;;0.95;;
25079;SDS011;13071;48.868;9.996;2022-10-16T01:18:11;1.00;;;1.00;;
25079;SDS011;13071;48.868;9.996;2022-10-16T01:20:44;1.10;;;1.10;;
25079;SDS011;13071;48.868;9.996;2022-10-16T01:23:20;1.70;;;1.05;;
25079;SDS011;13071;48.868;9.996;2022-10-16T01:26:03;1.73;;;1.10;;
25079;SDS011;13071;48.868;9.996;2022-10-16T01:28:41;1.23;;;1.10;;
25079;SDS011;13071;48.868;9.996;2022-10-16T01:31:15;1.08;;;1.08;;
25079;SDS011;13071;48.868;9.996;2022-10-16T01:33:45;1.63;;;1.00;;
25079;SDS011;13071;48.868;9.996;2022-10-16T01:36:14;1.33;;;1.00;;
25079;SDS011;13071;48.868;9.996;2022-10-16T01:38:46;2.97;;;0.90;;
25079;SDS011;13071;48.868;9.996;2022-10-16T01:41:17;4.72;;;0.93;;
25079;SDS011;13071;48.868;9.996;2022-10-16T01:43:53;1.83;;;1.10;;
25079;SDS011;13071;48.868;9.996;2022-10-16T01:46:25;0.80;;;0.80;;
25079;SDS011;13071;48.868;9.996;2022-10-16T01:48:52;1.02;;;1.02;;
25079;SDS011;13071;48.868;9.996;2022-10-16T01:51:21;0.80;;;0.80;;
25079;SDS011;13071;48.868;9.996;2022-10-16T01:53:49;1.10;;;1.10;;
25079;SDS011;13071;48.868;9.996;2022-10-16T01:56:20;0.95;;;0.95;;
25079;SDS011;13071;48.868;9.996;2022-10-16T01:58:49;0.90;;;0.90;;
25079;SDS011;13071;48.868;9.996;2022-10-16T02:01:21;0.82;;;0.82;;
25079;SDS011;13071;48.868;9.996;2022-10-16T02:03:51;0.90;;;0.90;;
25079;SDS011;13071;48.868;9.996;2022-10-16T02:06:22;1.35;;;0.93;;
25079;SDS011;13071;48.868;9.996;2022-10-16T02:08:50;1.38;;;0.90;;
25079;SDS011;13071;48.868;9.996;2022-10-16T02:11:16;0.93;;;0.90;;
25079;SDS011;13071;48.868;9.996;2022-10-16T02:13:44;3.00;;;1.00;;
25079;SDS011;13071;48.868;9.996;2022-10-16T02:16:15;1.52;;;0.80;;
25079;SDS011;13071;48.868;9.996;2022-10-16T02:18:42;1.10;;;0.90;;
25079;SDS011;13071;48.868;9.996;2022-10-16T02:21:11;1.00;;;1.00;;
25079;SDS011;13071;48.868;9.996;2022-10-16T02:23:43;1.33;;;1.00;;
25079;SDS011;13071;48.868;9.996;2022-10-16T02:26:19;1.40;;;0.82;;
25079;SDS011;13071;48.868;9.996;2022-10-16T02:28:54;3.80;;;1.20;;
25079;SDS011;13071;48.868;9.996;2022-10-16T02:31:28;4.13;;;1.00;;
25079;SDS011;13071;48.868;9.996;2022-10-16T02:33:59;1.08;;;1.08;;
25079;SDS011;13071;48.868;9.996;2022-10-16T02:36:30;1.58;;;1.00;;
25079;SDS011;13071;48.868;9.996;2022-10-16T02:38:57;1.75;;;0.90;;
25079;SDS011;13071;48.868;9.996;2022-10-16T02:41:25;7.32;;;1.10;;
25079;SDS011;13071;48.868;9.996;2022-10-16T02:43:52;3.05;;;1.10;;
25079;SDS011;13071;48.868;9.996;2022-10-16T02:46:20;1.30;;;1.20;;
25079;SDS011;13071;48.868;9.996;2022-10-16T02:48:48;1.05;;;1.05;;
25079;SDS011;13071;48.868;9.996;2022-10-16T02:51:14;0.95;;;0.95;;
25079;SDS011;13071;48.868;9.996;2022-10-16T02:53:41;1.95;;;1.02;;
25079;SDS011;13071;48.868;9.996;2022-10-16T02:56:08;1.30;;;1.20;;
25079;SDS011;13071;48.868;9.996;2022-10-16T02:58:34;1.95;;;1.02;;
25079;SDS011;13071;48.868;9.996;2022-10-16T03:01:01;1.95;;;1.10;;
25079;SDS011;13071;48.868;9.996;2022-10-16T03:03:27;2.90;;;1.05;;
25079;SDS011;13071;48.868;9.996;2022-10-16T03:05:55;3.65;;;1.00;;
25079;SDS011;13071;48.868;9.996;2022-10-16T03:08:22;1.05;;;1.00;;
25079;SDS011;13071;48.868;9.996;2022-10-16T03:10:50;1.23;;;1.13;;
25079;SDS011;13071;48.868;9.996;2022-10-16T03:13:17;1.23;;;1.10;;
25079;SDS011;13071;48.868;9.996;2022-10-16T03:15:45;1.30;;;1.20;;
25079;SDS011;13071;48.868;9.996;2022-10-16T03:18:12;1.13;;;1.02;;
25079;SDS011;13071;48.868;9.996;2022-10-16T03:20:38;3.40;;;1.15;;
25079;SDS011;13071;48.868;9.996;2022-10-16T03:23:06;2.33;;;1.00;;
25079;SDS011;13071;48.868;9.996;2022-10-16T03:25:33;1.30;;;1.20;;
25079;SDS011;13071;48.868;9.996;2022-10-16T03:28:00;1.02;;;1.02;;
25079;SDS011;13071;48.868;9.996;2022-10-16T03:30:27;1.13;;;1.13;;
25079;SDS011;13071;48.868;9.996;2022-10-16T03:32:53;2.90;;;1.10;;
25079;SDS011;13071;48.868;9.996;2022-10-16T03:35:20;4.75;;;1.27;;
25079;SDS011;13071;48.868;9.996;2022-10-16T03:37:47;1.45;;;1.20;;
25079;SDS011;13071;48.868;9.996;2022-10-16T03:40:15;1.33;;;1.20;;
25079;SDS011;13071;48.868;9.996;2022-10-16T03:42:42;1.55;;;1.10;;
25079;SDS011;13071;48.868;9.996;2022-10-16T03:45:10;1.55;;;1.42;;
25079;SDS011;13071;48.868;9.996;2022-10-16T03:47:37;1.13;;;1.13;;
25079;SDS011;13071;48.868;9.996;2022-10-16T03:50:04;1.10;;;1.10;;
25079;SDS011;13071;48.868;9.996;2022-10-16T03:52:31;0.95;;;0.95;;
25079;SDS011;13071;48.868;9.996;2022-10-16T03:54:58;3.80;;;1.00;;
25079;SDS011;13071;48.868;9.996;2022-10-16T03:57:26;1.40;;;1.30;;
25079;SDS011;13071;48.868;9.996;2022-10-16T03:59:52;1.10;;;1.10;;
25079;SDS011;13071;48.868;9.996;2022-10-16T04:02:19;1.90;;;1.20;;
25079;SDS011;13071;48.868;9.996;2022-10-16T04:04:46;2.13;;;1.10;;
25079;SDS011;13071;48.868;9.996;2022-10-16T04:07:12;1.27;;;1.17;;
25079;SDS011;13071;48.868;9.996;2022-10-16T04:09:39;2.08;;;1.00;;
25079;SDS011;13071;48.868;9.996;2022-10-16T04:12:05;1.00;;;1.00;;
25079;SDS011;13071;48.868;9.996;2022-10-16T04:14:33;1.10;;;1.00;;
25079;SDS011;13071;48.868;9.996;2022-10-16T04:17:00;1.63;;;1.35;;
25079;SDS011;13071;48.868;9.996;2022-10-16T04:19:26;1.42;;;1.33;;
25079;SDS011;13071;48.868;9.996;2022-10-16T04:21:53;1.40;;;1.30;;
25079;SDS011;13071;48.868;9.996;2022-10-16T04:24:20;2.53;;;1.20;;
25079;SDS011;13071;48.868;9.996;2022-10-16T04:26:46;1.17;;;1.00;;
25079;SDS011;13071;48.868;9.996;2022-10-16T04:29:13;1.65;;;1.20;;
25079;SDS011;13071;48.868;9.996;2022-10-16T04:31:41;1.40;;;1.30;;
25079;SDS011;13071;48.868;9.996;2022-10-16T04:34:07;1.75;;;1.30;;
25079;SDS011;13071;48.868;9.996;2022-10-16T04:36:34;1.38;;;1.27;;
25079;SDS011;13071;48.868;9.996;2022-10-16T04:39:00;1.15;;;1.15;;
25079;SDS011;13071;48.868;9.996;2022-10-16T04:41:27;1.50;;;1.40;;
25079;SDS011;13071;48.868;9.996;2022-10-16T04:43:53;1.80;;;1.20;;
25079;SDS011;13071;48.868;9.996;2022-10-16T04:46:20;2.00;;;1.13;;
25079;SDS011;13071;48.868;9.996;2022-10-16T04:48:48;2.60;;;1.50;;
25079;SDS011;13071;48.868;9.996;2022-10-16T04:51:15;1.48;;;1.38;;
25079;SDS011;13071;48.868;9.996;2022-10-16T04:53:41;1.10;;;1.10;;
25079;SDS011;13071;48.868;9.996;2022-10-16T04:56:08;1.20;;;1.20;;
25079;SDS011;13071;48.868;9.996;2022-10-16T04:58:34;1.13;;;1.08;;
25079;SDS011;13071;48.868;9.996;2022-10-16T05:01:01;1.65;;;1.10;;
25079;SDS011;13071;48.868;9.996;2022-10-16T05:03:27;2.30;;;1.33;;
25079;SDS011;13071;48.868;9.996;2022-10-16T05:05:55;1.27;;;1.20;;
25079;SDS011;13071;48.868;9.996;2022-10-16T05:08:22;0.98;;;0.98;;
25079;SDS011;13071;48.868;9.996;2022-10-16T05:10:49;1.70;;;1.17;;
25079;SDS011;13071;48.868;9.996;2022-10-16T05:13:15;1.65;;;1.10;;
25079;SDS011;13071;48.868;9.996;2022-10-16T05:15:42;3.70;;;1.30;;
25079;SDS011;13071;48.868;9.996;2022-10-16T05:18:13;1.20;;;1.10;;
25079;SDS011;13071;48.868;9.996;2022-10-16T05:20:39;1.73;;;1.40;;
25079;SDS011;13071;48.868;9.996;2022-10-16T05:23:08;2.08;;;1.52;;
25079;SDS011;13071;48.868;9.996;2022-10-16T05:25:35;1.23;;;1.13;;
25079;SDS011;13071;48.868;9.996;2022-10-16T05:28:01;1.20;;;1.20;;
25079;SDS011;13071;48.868;9.996;2022-10-16T05:30:28;1.20;;;1.20;;
25079;SDS011;13071;48.868;9.996;2022-10-16T05:32:55;5.03;;;1.15;;
25079;SDS011;13071;48.868;9.996;2022-10-16T05:35:21;1.27;;;1.23;;
25079;SDS011;13071;48.868;9.996;2022-10-16T05:37:48;1.67;;;1.58;;
25079;SDS011;13071;48.868;9.996;2022-10-16T05:40:16;1.25;;;1.20;;
25079;SDS011;13071;48.868;9.996;2022-10-16T05:42:43;1.73;;;1.40;;
25079;SDS011;13071;48.868;9.996;2022-10-16T05:45:10;2.25;;;1.35;;
25079;SDS011;13071;48.868;9.996;2022-10-16T05:47:37;3.28;;;1.60;;
25079;SDS011;13071;48.868;9.996;2022-10-16T05:50:04;1.33;;;1.23;;
25079;SDS011;13071;48.868;9.996;2022-10-16T05:52:31;1.67;;;1.50;;
25079;SDS011;13071;48.868;9.996;2022-10-16T05:54:58;2.17;;;1.50;;
25079;SDS011;13071;48.868;9.996;2022-10-16T05:57:25;2.28;;;1.20;;
25079;SDS011;13071;48.868;9.996;2022-10-16T05:59:52;2.00;;;1.20;;
25079;SDS011;13071;48.868;9.996;2022-10-16T06:02:19;2.70;;;1.30;;
25079;SDS011;13071;48.868;9.996;2022-10-16T06:04:45;2.20;;;1.30;;
25079;SDS011;13071;48.868;9.996;2022-10-16T06:07:12;1.10;;;1.10;;
25079;SDS011;13071;48.868;9.996;2022-10-16T06:09:38;2.05;;;1.50;;
25079;SDS011;13071;48.868;9.996;2022-10-16T06:12:05;1.50;;;1.40;;
25079;SDS011;13071;48.868;9.996;2022-10-16T06:14:33;1.13;;;1.13;;
25079;SDS011;13071;48.868;9.996;2022-10-16T06:16:59;1.20;;;1.10;;
25079;SDS011;13071;48.868;9.996;2022-10-16T06:19:26;1.50;;;1.40;;
25079;SDS011;13071;48.868;9.996;2022-10-16T06:21:53;2.42;;;1.42;;
25079;SDS011;13071;48.868;9.996;2022-10-16T06:24:19;1.83;;;1.30;;
25079;SDS011;13071;48.868;9.996;2022-10-16T06:26:46;4.03;;;1.40;;
25079;SDS011;13071;48.868;9.996;2022-10-16T06:29:13;4.40;;;1.70;;
25079;SDS011;13071;48.868;9.996;2022-10-16T06:31:40;1.92;;;1.60;;
25079;SDS011;13071;48.868;9.996;2022-10-16T06:34:08;2.40;;;1.90;;
25079;SDS011;13071;48.868;9.996;2022-10-16T06:36:35;1.60;;;1.45;;
25079;SDS011;13071;48.868;9.996;2022-10-16T06:39:03;1.60;;;1.50;;
25079;SDS011;13071;48.868;9.996;2022-10-16T06:41:29;1.40;;;1.30;;
25079;SDS011;13071;48.868;9.996;2022-10-16T06:43:56;2.25;;;1.60;;
25079;SDS011;13071;48.868;9.996;2022-10-16T06:46:23;1.60;;;1.48;;
25079;SDS011;13071;48.868;9.996;2022-10-16T06:48:52;3.30;;;1.80;;
25079;SDS011;13071;48.868;9.996;2022-10-16T06:51:19;5.15;;;2.45;;
25079;SDS011;13071;48.868;9.996;2022-10-16T06:53:48;10.88;;;3.10;;
25079;SDS011;13071;48.868;9.996;2022-10-16T06:56:16;9.75;;;2.72;;
25079;SDS011;13071;48.868;9.996;2022-10-16T06:58:44;2.53;;;2.20;;
25079;SDS011;13071;48.868;9.996;2022-10-16T07:01:12;3.08;;;2.00;;
25079;SDS011;13071;48.868;9.996;2022-10-16T07:03:40;1.90;;;1.80;;
25079;SDS011;13071;48.868;9.996;2022-10-16T07:06:10;1.77;;;1.52;;
25079;SDS011;13071;48.868;9.996;2022-10-16T07:08:39;3.03;;;1.50;;
25079;SDS011;13071;48.868;9.996;2022-10-16T07:11:07;2.15;;;1.60;;
25079;SDS011;13071;48.868;9.996;2022-10-16T07:13:35;1.30;;;1.23;;
25079;SDS011;13071;48.868;9.996;2022-10-16T07:16:06;4.13;;;1.48;;
25079;SDS011;13071;48.868;9.996;2022-10-16T07:18:34;6.93;;;1.30;;
25079;SDS011;13071;48.868;9.996;2022-10-16T07:21:04;2.25;;;1.67;;
25079;SDS011;13071;48.868;9.996;2022-10-16T07:23:33;1.88;;;1.50;;
25079;SDS011;13071;48.868;9.996;2022-10-16T07:25:59;1.50;;;1.40;;
25079;SDS011;13071;48.868;9.996;2022-10-16T07:28:26;2.00;;;1.30;;
25079;SDS011;13071;48.868;9.996;2022-10-16T07:30:53;1.50;;;1.40;;
25079;SDS011;13071;48.868;9.996;2022-10-16T07:33:20;1.20;;;1.20;;
25079;SDS011;13071;48.868;9.996;2022-10-16T07:35:47;1.40;;;1.30;;
25079;SDS011;13071;48.868;9.996;2022-10-16T07:38:15;4.22;;;1.50;;
25079;SDS011;13071;48.868;9.996;2022-10-16T07:40:43;4.82;;;1.52;;
25079;SDS011;13071;48.868;9.996;2022-10-16T07:43:09;2.35;;;1.40;;
25079;SDS011;13071;48.868;9.996;2022-10-16T07:45:36;1.73;;;1.63;;
25079;SDS011;13071;48.868;9.996;2022-10-16T07:48:04;8.88;;;2.83;;
25079;SDS011;13071;48.868;9.996;2022-10-16T07:50:31;8.43;;;3.05;;
25079;SDS011;13071;48.868;9.996;2022-10-16T07:52:57;3.03;;;1.98;;
25079;SDS011;13071;48.868;9.996;2022-10-16T07:55:24;2.47;;;1.83;;
25079;SDS011;13071;48.868;9.996;2022-10-16T07:57:52;2.47;;;1.60;;
25079;SDS011;13071;48.868;9.996;2022-10-16T08:00:18;1.80;;;1.70;;
25079;SDS011;13071;48.868;9.996;2022-10-16T08:02:45;1.45;;;1.35;;
25079;SDS011;13071;48.868;9.996;2022-10-16T08:05:11;1.42;;;1.35;;
25079;SDS011;13071;48.868;9.996;2022-10-16T08:07:38;3.45;;;1.50;;
25079;SDS011;13071;48.868;9.996;2022-10-16T08:10:05;4.57;;;1.38;;
25079;SDS011;13071;48.868;9.996;2022-10-16T08:12:32;3.65;;;1.30;;
25079;SDS011;13071;48.868;9.996;2022-10-16T08:15:00;1.15;;;1.15;;
25079;SDS011;13071;48.868;9.996;2022-10-16T08:17:26;1.20;;;1.10;;
25079;SDS011;13071;48.868;9.996;2022-10-16T08:19:53;1.50;;;1.38;;
25079;SDS011;13071;48.868;9.996;2022-10-16T08:22:20;2.63;;;1.23;;
25079;SDS011;13071;48.868;9.996;2022-10-16T08:24:46;1.40;;;1.30;;
25079;SDS011;13071;48.868;9.996;2022-10-16T08:27:13;1.40;;;1.30;;
25079;SDS011;13071;48.868;9.996;2022-10-16T08:29:39;2.53;;;1.35;;
25079;SDS011;13071;48.868;9.996;2022-10-16T08:32:07;4.13;;;1.65;;
25079;SDS011;13071;48.868;9.996;2022-10-16T08:34:34;6.20;;;1.20;;
25079;SDS011;13071;48.868;9.996;2022-10-16T08:37:00;1.42;;;1.30;;
25079;SDS011;13071;48.868;9.996;2022-10-16T08:39:27;1.50;;;1.40;;
25079;SDS011;13071;48.868;9.996;2022-10-16T08:41:57;1.60;;;1.50;;
25079;SDS011;13071;48.868;9.996;2022-10-16T08:44:41;3.92;;;1.30;;
25079;SDS011;13071;48.868;9.996;2022-10-16T08:47:39;3.38;;;1.27;;
25079;SDS011;13071;48.868;9.996;2022-10-16T08:50:13;1.40;;;1.30;;
25079;SDS011;13071;48.868;9.996;2022-10-16T08:52:44;1.70;;;1.60;;
25079;SDS011;13071;48.868;9.996;2022-10-16T08:55:17;3.05;;;2.47;;
25079;SDS011;13071;48.868;9.996;2022-10-16T08:57:54;2.28;;;1.60;;
25079;SDS011;13071;48.868;9.996;2022-10-16T09:00:21;1.65;;;1.55;;
25079;SDS011;13071;48.868;9.996;2022-10-16T09:02:51;1.55;;;1.45;;
25079;SDS011;13071;48.868;9.996;2022-10-16T09:05:27;1.50;;;1.40;;
25079;SDS011;13071;48.868;9.996;2022-10-16T09:08:06;2.92;;;1.60;;
25079;SDS011;13071;48.868;9.996;2022-10-16T09:10:43;1.70;;;1.60;;
25079;SDS011;13071;48.868;9.996;2022-10-16T09:13:17;1.58;;;1.48;;
25079;SDS011;13071;48.868;9.996;2022-10-16T09:15:52;3.47;;;1.67;;
25079;SDS011;13071;48.868;9.996;2022-10-16T09:18:24;4.60;;;1.52;;
25079;SDS011;13071;48.868;9.996;2022-10-16T09:20:57;1.60;;;1.50;;
25079;SDS011;13071;48.868;9.996;2022-10-16T09:23:33;1.40;;;1.30;;
25079;SDS011;13071;48.868;9.996;2022-10-16T09:26:01;3.53;;;1.70;;
25079;SDS011;13071;48.868;9.996;2022-10-16T09:28:29;1.60;;;1.50;;
25079;SDS011;13071;48.868;9.996;2022-10-16T09:30:56;5.28;;;1.35;;
25079;SDS011;13071;48.868;9.996;2022-10-16T09:33:25;4.25;;;1.15;;
25079;SDS011;13071;48.868;9.996;2022-10-16T09:35:56;3.10;;;1.35;;
25079;SDS011;13071;48.868;9.996;2022-10-16T09:38:25;1.67;;;1.33;;
25079;SDS011;13071;48.868;9.996;2022-10-16T09:40:54;3.78;;;1.20;;
25079;SDS011;13071;48.868;9.996;2022-10-16T09:43:23;1.20;;;1.20;;
25079;SDS011;13071;48.868;9.996;2022-10-16T09:45:57;1.55;;;1.45;;
25079;SDS011;13071;48.868;9.996;2022-10-16T09:48:28;1.83;;;1.50;;
25079;SDS011;13071;48.868;9.996;2022-10-16T09:51:00;3.95;;;1.40;;
25079;SDS011;13071;48.868;9.996;2022-10-16T09:53:41;1.30;;;1.20;;
25079;SDS011;13071;48.868;9.996;2022-10-16T09:56:09;5.32;;;1.67;;
25079;SDS011;13071;48.868;9.996;2022-10-16T09:58:41;3.20;;;1.13;;
25079;SDS011;13071;48.868;9.996;2022-10-16T10:01:11;2.00;;;1.13;;
25079;SDS011;13071;48.868;9.996;2022-10-16T10:03:41;2.72;;;1.17;;
25079;SDS011;13071;48.868;9.996;2022-10-16T10:06:16;3.72;;;1.25;;
25079;SDS011;13071;48.868;9.996;2022-10-16T10:08:53;1.10;;;1.10;;
25079;SDS011;13071;48.868;9.996;2022-10-16T10:11:38;1.30;;;1.20;;
25079;SDS011;13071;48.868;9.996;2022-10-16T10:14:06;1.60;;;1.50;;
25079;SDS011;13071;48.868;9.996;2022-10-16T10:16:43;5.13;;;1.80;;
25079;SDS011;13071;48.868;9.996;2022-10-16T10:19:14;1.65;;;1.55;;
25079;SDS011;13071;48.868;9.996;2022-10-16T10:21:42;3.03;;;1.58;;
25079;SDS011;13071;48.868;9.996;2022-10-16T10:24:10;1.30;;;1.20;;
25079;SDS011;13071;48.868;9.996;2022-10-16T10:26:38;1.35;;;1.25;;
25079;SDS011;13071;48.868;9.996;2022-10-16T10:29:11;5.43;;;1.20;;
25079;SDS011;13071;48.868;9.996;2022-10-16T10:31:44;4.90;;;1.45;;
25079;SDS011;13071;48.868;9.996;2022-10-16T10:34:32;1.40;;;1.30;;
25079;SDS011;13071;48.868;9.996;2022-10-16T10:37:09;1.13;;;1.13;;
25079;SDS011;13071;48.868;9.996;2022-10-16T10:39:50;3.88;;;1.30;;
25079;SDS011;13071;48.868;9.996;2022-10-16T10:42:24;2.17;;;1.20;;
25079;SDS011;13071;48.868;9.996;2022-10-16T10:45:00;1.38;;;1.27;;
25079;SDS011;13071;48.868;9.996;2022-10-16T10:47:57;0.98;;;0.98;;
25079;SDS011;13071;48.868;9.996;2022-10-16T10:50:35;1.35;;;1.20;;
25079;SDS011;13071;48.868;9.996;2022-10-16T10:53:10;5.32;;;1.00;;
25079;SDS011;13071;48.868;9.996;2022-10-16T10:55:45;0.90;;;0.90;;
25079;SDS011;13071;48.868;9.996;2022-10-16T11:01:09;1.10;;;1.00;;
25079;SDS011;13071;48.868;9.996;2022-10-16T11:03:43;2.55;;;1.23;;
25079;SDS011;13071;48.868;9.996;2022-10-16T11:06:26;2.33;;;0.95;;
25079;SDS011;13071;48.868;9.996;2022-10-16T11:08:58;1.00;;;1.00;;
25079;SDS011;13071;48.868;9.996;2022-10-16T11:11:30;7.57;;;1.40;;
25079;SDS011;13071;48.868;9.996;2022-10-16T11:14:02;2.47;;;1.20;;
25079;SDS011;13071;48.868;9.996;2022-10-16T11:16:35;1.27;;;1.00;;
25079;SDS011;13071;48.868;9.996;2022-10-16T11:19:10;1.92;;;1.10;;
25079;SDS011;13071;48.868;9.996;2022-10-16T11:21:43;0.88;;;0.88;;
25079;SDS011;13071;48.868;9.996;2022-10-16T11:24:16;1.70;;;1.05;;
25079;SDS011;13071;48.868;9.996;2022-10-16T11:26:48;3.78;;;0.90;;
25079;SDS011;13071;48.868;9.996;2022-10-16T11:29:19;1.10;;;1.02;;
25079;SDS011;13071;48.868;9.996;2022-10-16T11:31:50;4.05;;;1.33;;
25079;SDS011;13071;48.868;9.996;2022-10-16T11:34:22;1.05;;;1.00;;
25079;SDS011;13071;48.868;9.996;2022-10-16T11:36:57;6.15;;;1.30;;
25079;SDS011;13071;48.868;9.996;2022-10-16T11:39:28;3.58;;;1.67;;
25079;SDS011;13071;48.868;9.996;2022-10-16T11:41:58;5.88;;;2.22;;
25079;SDS011;13071;48.868;9.996;2022-10-16T11:44:36;0.98;;;0.98;;
25079;SDS011;13071;48.868;9.996;2022-10-16T11:47:15;1.33;;;1.00;;
25079;SDS011;13071;48.868;9.996;2022-10-16T11:50:00;0.90;;;0.90;;
25079;SDS011;13071;48.868;9.996;2022-10-16T11:52:33;1.42;;;1.30;;
25079;SDS011;13071;48.868;9.996;2022-10-16T11:55:09;0.90;;;0.90;;
25079;SDS011;13071;48.868;9.996;2022-10-16T11:57:42;1.10;;;0.98;;
25079;SDS011;13071;48.868;9.996;2022-10-16T12:00:16;2.45;;;0.95;;
25079;SDS011;13071;48.868;9.996;2022-10-16T12:02:50;0.98;;;0.98;;
25079;SDS011;13071;48.868;9.996;2022-10-16T12:05:25;1.00;;;0.93;;
25079;SDS011;13071;48.868;9.996;2022-10-16T12:08:06;1.20;;;1.10;;
25079;SDS011;13071;48.868;9.996;2022-10-16T12:10:36;1.00;;;1.00;;
25079;SDS011;13071;48.868;9.996;2022-10-16T12:13:04;1.77;;;0.98;;
25079;SDS011;13071;48.868;9.996;2022-10-16T12:15:32;0.98;;;0.98;;
25079;SDS011;13071;48.868;9.996;2022-10-16T12:18:00;0.90;;;0.90;;
25079;SDS011;13071;48.868;9.996;2022-10-16T12:20:27;0.95;;;0.95;;
25079;SDS011;13071;48.868;9.996;2022-10-16T12:22:58;1.00;;;1.00;;
25079;SDS011;13071;48.868;9.996;2022-10-16T12:25:28;1.08;;;0.90;;
25079;SDS011;13071;48.868;9.996;2022-10-16T12:27:58;1.30;;;1.20;;
25079;SDS011;13071;48.868;9.996;2022-10-16T12:30:27;1.67;;;1.15;;
25079;SDS011;13071;48.868;9.996;2022-10-16T12:32:56;1.27;;;1.00;;
25079;SDS011;13071;48.868;9.996;2022-10-16T12:35:25;1.85;;;1.25;;
25079;SDS011;13071;48.868;9.996;2022-10-16T12:37:54;0.88;;;0.80;;
25079;SDS011;13071;48.868;9.996;2022-10-16T12:40:40;1.88;;;1.30;;
25079;SDS011;13071;48.868;9.996;2022-10-16T12:43:13;1.02;;;1.02;;
25079;SDS011;13071;48.868;9.996;2022-10-16T12:46:02;2.75;;;1.13;;
25079;SDS011;13071;48.868;9.996;2022-10-16T12:48:31;1.50;;;1.42;;
25079;SDS011;13071;48.868;9.996;2022-10-16T12:51:09;1.17;;;1.10;;
25079;SDS011;13071;48.868;9.996;2022-10-16T12:53:36;1.33;;;1.25;;
25079;SDS011;13071;48.868;9.996;2022-10-16T12:56:08;1.10;;;1.10;;
25079;SDS011;13071;48.868;9.996;2022-10-16T12:58:51;2.05;;;1.27;;
25079;SDS011;13071;48.868;9.996;2022-10-16T13:01:41;0.90;;;0.90;;
25079;SDS011;13071;48.868;9.996;2022-10-16T13:04:18;1.02;;;1.00;;
25079;SDS011;13071;48.868;9.996;2022-10-16T13:06:59;1.10;;;1.08;;
25079;SDS011;13071;48.868;9.996;2022-10-16T13:09:41;0.80;;;0.80;;
25079;SDS011;13071;48.868;9.996;2022-10-16T13:12:22;1.33;;;1.05;;
25079;SDS011;13071;48.868;9.996;2022-10-16T13:15:08;0.85;;;0.85;;
25079;SDS011;13071;48.868;9.996;2022-10-16T13:17:46;0.73;;;0.73;;
25079;SDS011;13071;48.868;9.996;2022-10-16T13:20:21;1.00;;;1.00;;
25079;SDS011;13071;48.868;9.996;2022-10-16T13:22:59;0.85;;;0.85;;
25079;SDS011;13071;48.868;9.996;2022-10-16T13:25:35;4.65;;;0.90;;
25079;SDS011;13071;48.868;9.996;2022-10-16T13:28:11;0.90;;;0.90;;
25079;SDS011;13071;48.868;9.996;2022-10-16T13:30:40;1.20;;;1.05;;
25079;SDS011;13071;48.868;9.996;2022-10-16T13:33:12;1.00;;;0.90;;
25079;SDS011;13071;48.868;9.996;2022-10-16T13:35:46;1.48;;;0.90;;
25079;SDS011;13071;48.868;9.996;2022-10-16T13:38:16;0.90;;;0.90;;
25079;SDS011;13071;48.868;9.996;2022-10-16T13:40:48;3.85;;;0.90;;
25079;SDS011;13071;48.868;9.996;2022-10-16T13:43:18;1.15;;;1.00;;
25079;SDS011;13071;48.868;9.996;2022-10-16T13:45:53;0.95;;;0.95;;
25079;SDS011;13071;48.868;9.996;2022-10-16T13:48:21;1.08;;;0.90;;
25079;SDS011;13071;48.868;9.996;2022-10-16T13:50:57;0.73;;;0.73;;
25079;SDS011;13071;48.868;9.996;2022-10-16T13:53:24;1.40;;;1.10;;
25079;SDS011;13071;48.868;9.996;2022-10-16T13:55:51;1.02;;;0.90;;
25079;SDS011;13071;48.868;9.996;2022-10-16T13:58:19;1.15;;;1.13;;
25079;SDS011;13071;48.868;9.996;2022-10-16T14:00:53;2.10;;;1.27;;
25079;SDS011;13071;48.868;9.996;2022-10-16T14:03:21;1.00;;;0.98;;
25079;SDS011;13071;48.868;9.996;2022-10-16T14:05:49;2.65;;;1.17;;
25079;SDS011;13071;48.868;9.996;2022-10-16T14:08:17;2.35;;;1.00;;
25079;SDS011;13071;48.868;9.996;2022-10-16T14:10:47;0.95;;;0.90;;
25079;SDS011;13071;48.868;9.996;2022-10-16T14:13:15;1.23;;;1.00;;
25079;SDS011;13071;48.868;9.996;2022-10-16T14:15:47;1.00;;;1.00;;
25079;SDS011;13071;48.868;9.996;2022-10-16T14:18:18;1.58;;;0.93;;
25079;SDS011;13071;48.868;9.996;2022-10-16T14:20:46;1.10;;;1.10;;
25079;SDS011;13071;48.868;9.996;2022-10-16T14:23:20;0.93;;;0.90;;
25079;SDS011;13071;48.868;9.996;2022-10-16T14:25:51;3.55;;;1.10;;
25079;SDS011;13071;48.868;9.996;2022-10-16T14:28:18;0.82;;;0.82;;
25079;SDS011;13071;48.868;9.996;2022-10-16T14:30:52;2.78;;;0.80;;
25079;SDS011;13071;48.868;9.996;2022-10-16T14:33:22;1.13;;;1.00;;
25079;SDS011;13071;48.868;9.996;2022-10-16T14:35:59;1.73;;;1.05;;
25079;SDS011;13071;48.868;9.996;2022-10-16T14:38:28;1.50;;;1.15;;
25079;SDS011;13071;48.868;9.996;2022-10-16T14:40:56;1.70;;;1.10;;
25079;SDS011;13071;48.868;9.996;2022-10-16T14:43:26;1.30;;;1.20;;
25079;SDS011;13071;48.868;9.996;2022-10-16T14:45:59;1.00;;;1.00;;
25079;SDS011;13071;48.868;9.996;2022-10-16T14:48:27;1.00;;;1.00;;
25079;SDS011;13071;48.868;9.996;2022-10-16T14:50:55;0.70;;;0.70;;
25079;SDS011;13071;48.868;9.996;2022-10-16T14:53:22;0.95;;;0.90;;
25079;SDS011;13071;48.868;9.996;2022-10-16T14:55:48;0.70;;;0.70;;
25079;SDS011;13071;48.868;9.996;2022-10-16T14:58:15;0.90;;;0.90;;
25079;SDS011;13071;48.868;9.996;2022-10-16T15:00:44;1.25;;;1.00;;
25079;SDS011;13071;48.868;9.996;2022-10-16T15:03:12;1.02;;;1.00;;
25079;SDS011;13071;48.868;9.996;2022-10-16T15:05:39;0.90;;;0.90;;
25079;SDS011;13071;48.868;9.996;2022-10-16T15:08:06;1.08;;;1.00;;